This is the latest recevied weather packets stored in our database for station/object OE-11344. If no packets are shown the sender has not sent any weather packets the latest 10 day(s).
| Time | Temp. | Humidity | Pressure | Rain* | Wind** | Luminosity | Snow |
|---|---|---|---|---|---|---|---|
| 1787937085 | 20.56° C | 60% | 850.8 hPa | 0 mm | - | 24 W/m² | - |
| 1787936711 | 22.22° C | 49% | 851 hPa | 0 mm | - | 12 W/m² | - |
| 1787936111 | 22.78° C | 42% | 850.6 hPa | 0 mm | - | 30 W/m² | - |
| 1787935285 | 23.89° C | 38% | 850.4 hPa | 0 mm | - | 36 W/m² | - |
| 1787934912 | 23.33° C | 40% | 850.6 hPa | 0 mm | - | 60 W/m² | - |
| 1787934312 | 23.89° C | 36% | 850.5 hPa | 0 mm | - | 79 W/m² | - |
| 1787933485 | 23.89° C | 36% | 850.6 hPa | 0 mm | - | 109 W/m² | - |
| 1787933112 | 23.89° C | 37% | 850.6 hPa | 0 mm | - | 121 W/m² | - |
| 1787932512 | 23.89° C | 38% | 850.4 hPa | 0 mm | - | 151 W/m² | - |
| 1787931685 | 24.44° C | 36% | 850.5 hPa | 0 mm | - | 133 W/m² | - |
| 1787931312 | 24.44° C | 35% | 850.6 hPa | 0 mm | - | 145 W/m² | - |
| 1787930712 | 24.44° C | 33% | 850.8 hPa | 0 mm | - | 151 W/m² | - |
| 1787929884 | 24.44° C | 34% | 850.7 hPa | 0 mm | - | 121 W/m² | - |
| 1787929511 | 24.44° C | 34% | 850.6 hPa | 0 mm | - | 157 W/m² | - |
| 1787928911 | 24.44° C | 35% | 850.7 hPa | 0 mm | - | 127 W/m² | - |
| 1787928085 | 24.44° C | 34% | 850.9 hPa | 0 mm | - | 145 W/m² | - |
| 1787927711 | 24.44° C | 33% | 851.1 hPa | 0 mm | - | 163 W/m² | - |
| 1787927111 | 24.44° C | 35% | 851.1 hPa | 0 mm | - | 181 W/m² | - |
| 1787926285 | 24.44° C | 36% | 851.5 hPa | 0 mm | - | 217 W/m² | - |
| 1787925912 | 24.44° C | 34% | 851.4 hPa | 0 mm | - | 181 W/m² | - |
| 1787925312 | 24.44° C | 38% | 851.4 hPa | 0 mm | - | 175 W/m² | - |
| 1787924485 | 24.44° C | 38% | 851.6 hPa | 0 mm | - | 193 W/m² | - |
| 1787924112 | 24.44° C | 38% | 851.9 hPa | 0 mm | - | 211 W/m² | - |
| 1787923512 | 24.44° C | 35% | 851.9 hPa | 0 mm | - | 175 W/m² | - |
| 1787922683 | 24.44° C | 36% | 851.7 hPa | 0 mm | - | 217 W/m² | - |
* Rain latest hour (hover to see other rain measurements)
** Current wind speed in m/s (hover to see current wind gust speed)